sensor_id;sensor_type;location;lat;lon;timestamp;P1;durP1;ratioP1;P2;durP2;ratioP2
64387;SDS011;50709;52.648;4.764;2023-02-05T00:01:51;14.55;;;6.65;;
64387;SDS011;50709;52.648;4.764;2023-02-05T00:04:17;11.10;;;5.70;;
64387;SDS011;50709;52.648;4.764;2023-02-05T00:06:43;11.13;;;5.35;;
64387;SDS011;50709;52.648;4.764;2023-02-05T00:09:09;13.43;;;5.22;;
64387;SDS011;50709;52.648;4.764;2023-02-05T00:11:34;14.02;;;5.55;;
64387;SDS011;50709;52.648;4.764;2023-02-05T00:13:59;10.40;;;5.15;;
64387;SDS011;50709;52.648;4.764;2023-02-05T00:16:25;12.18;;;4.97;;
64387;SDS011;50709;52.648;4.764;2023-02-05T00:18:51;13.88;;;5.57;;
64387;SDS011;50709;52.648;4.764;2023-02-05T00:21:20;12.30;;;5.10;;
64387;SDS011;50709;52.648;4.764;2023-02-05T00:23:46;9.48;;;5.03;;
64387;SDS011;50709;52.648;4.764;2023-02-05T00:26:12;11.60;;;5.20;;
64387;SDS011;50709;52.648;4.764;2023-02-05T00:28:38;11.20;;;5.50;;
64387;SDS011;50709;52.648;4.764;2023-02-05T00:31:08;10.93;;;5.55;;
64387;SDS011;50709;52.648;4.764;2023-02-05T00:33:35;14.50;;;6.22;;
64387;SDS011;50709;52.648;4.764;2023-02-05T00:36:01;14.00;;;6.75;;
64387;SDS011;50709;52.648;4.764;2023-02-05T00:38:26;14.38;;;7.35;;
64387;SDS011;50709;52.648;4.764;2023-02-05T00:40:52;15.98;;;7.53;;
64387;SDS011;50709;52.648;4.764;2023-02-05T00:43:17;13.80;;;7.38;;
64387;SDS011;50709;52.648;4.764;2023-02-05T00:45:42;16.02;;;7.13;;
64387;SDS011;50709;52.648;4.764;2023-02-05T00:48:08;15.98;;;8.23;;
64387;SDS011;50709;52.648;4.764;2023-02-05T00:50:34;15.20;;;6.93;;
64387;SDS011;50709;52.648;4.764;2023-02-05T00:53:00;17.00;;;7.28;;
64387;SDS011;50709;52.648;4.764;2023-02-05T00:55:26;13.25;;;7.57;;
64387;SDS011;50709;52.648;4.764;2023-02-05T00:57:51;13.18;;;6.28;;
64387;SDS011;50709;52.648;4.764;2023-02-05T01:00:17;18.35;;;7.10;;
64387;SDS011;50709;52.648;4.764;2023-02-05T01:02:43;14.80;;;6.57;;
64387;SDS011;50709;52.648;4.764;2023-02-05T01:05:08;11.90;;;6.07;;
64387;SDS011;50709;52.648;4.764;2023-02-05T01:07:34;13.65;;;6.40;;
64387;SDS011;50709;52.648;4.764;2023-02-05T01:09:59;15.07;;;6.72;;
64387;SDS011;50709;52.648;4.764;2023-02-05T01:12:25;14.27;;;6.10;;
64387;SDS011;50709;52.648;4.764;2023-02-05T01:14:50;13.93;;;5.88;;
64387;SDS011;50709;52.648;4.764;2023-02-05T01:17:16;10.02;;;5.68;;
64387;SDS011;50709;52.648;4.764;2023-02-05T01:19:41;11.15;;;5.85;;
64387;SDS011;50709;52.648;4.764;2023-02-05T01:22:07;12.43;;;5.40;;
64387;SDS011;50709;52.648;4.764;2023-02-05T01:24:32;9.35;;;4.90;;
64387;SDS011;50709;52.648;4.764;2023-02-05T01:26:58;11.90;;;5.72;;
64387;SDS011;50709;52.648;4.764;2023-02-05T01:29:24;7.95;;;4.97;;
64387;SDS011;50709;52.648;4.764;2023-02-05T01:31:50;10.10;;;4.90;;
64387;SDS011;50709;52.648;4.764;2023-02-05T01:34:16;8.40;;;4.47;;
64387;SDS011;50709;52.648;4.764;2023-02-05T01:36:41;11.13;;;4.63;;
64387;SDS011;50709;52.648;4.764;2023-02-05T01:39:06;8.20;;;4.03;;
64387;SDS011;50709;52.648;4.764;2023-02-05T01:41:32;10.95;;;4.30;;
64387;SDS011;50709;52.648;4.764;2023-02-05T01:44:09;9.18;;;4.15;;
64387;SDS011;50709;52.648;4.764;2023-02-05T01:46:40;8.27;;;3.83;;
64387;SDS011;50709;52.648;4.764;2023-02-05T01:49:09;6.80;;;3.50;;
64387;SDS011;50709;52.648;4.764;2023-02-05T01:51:38;8.82;;;3.38;;
64387;SDS011;50709;52.648;4.764;2023-02-05T01:54:04;8.82;;;3.80;;
64387;SDS011;50709;52.648;4.764;2023-02-05T01:56:41;8.30;;;3.60;;
64387;SDS011;50709;52.648;4.764;2023-02-05T01:59:41;6.20;;;3.22;;
64387;SDS011;50709;52.648;4.764;2023-02-05T02:02:08;4.93;;;3.05;;
64387;SDS011;50709;52.648;4.764;2023-02-05T02:04:38;7.60;;;2.60;;
64387;SDS011;50709;52.648;4.764;2023-02-05T02:07:07;5.53;;;3.30;;
64387;SDS011;50709;52.648;4.764;2023-02-05T02:09:34;6.38;;;2.90;;
64387;SDS011;50709;52.648;4.764;2023-02-05T02:12:00;5.03;;;3.35;;
64387;SDS011;50709;52.648;4.764;2023-02-05T02:14:26;4.53;;;2.47;;
64387;SDS011;50709;52.648;4.764;2023-02-05T02:16:55;6.57;;;2.60;;
64387;SDS011;50709;52.648;4.764;2023-02-05T02:19:26;6.28;;;2.55;;
64387;SDS011;50709;52.648;4.764;2023-02-05T02:22:07;7.13;;;2.50;;
64387;SDS011;50709;52.648;4.764;2023-02-05T02:27:26;4.03;;;2.30;;
64387;SDS011;50709;52.648;4.764;2023-02-05T02:38:05;6.65;;;2.78;;
64387;SDS011;50709;52.648;4.764;2023-02-05T02:40:37;7.97;;;3.13;;
64387;SDS011;50709;52.648;4.764;2023-02-05T02:45:44;5.38;;;2.42;;
64387;SDS011;50709;52.648;4.764;2023-02-05T02:48:14;6.97;;;3.13;;
64387;SDS011;50709;52.648;4.764;2023-02-05T02:50:43;6.47;;;3.03;;
64387;SDS011;50709;52.648;4.764;2023-02-05T02:53:13;6.60;;;2.75;;
64387;SDS011;50709;52.648;4.764;2023-02-05T02:55:43;5.18;;;3.17;;
64387;SDS011;50709;52.648;4.764;2023-02-05T02:58:29;9.50;;;3.60;;
64387;SDS011;50709;52.648;4.764;2023-02-05T03:00:59;6.93;;;3.00;;
64387;SDS011;50709;52.648;4.764;2023-02-05T03:03:28;8.35;;;3.53;;
64387;SDS011;50709;52.648;4.764;2023-02-05T03:05:57;6.60;;;3.08;;
64387;SDS011;50709;52.648;4.764;2023-02-05T03:08:34;5.40;;;3.13;;
64387;SDS011;50709;52.648;4.764;2023-02-05T03:11:05;5.88;;;3.17;;
64387;SDS011;50709;52.648;4.764;2023-02-05T03:13:36;7.47;;;3.70;;
64387;SDS011;50709;52.648;4.764;2023-02-05T03:16:01;7.18;;;4.00;;
64387;SDS011;50709;52.648;4.764;2023-02-05T03:18:27;10.50;;;4.32;;
64387;SDS011;50709;52.648;4.764;2023-02-05T03:20:55;5.10;;;3.60;;
64387;SDS011;50709;52.648;4.764;2023-02-05T03:23:25;10.00;;;4.03;;
64387;SDS011;50709;52.648;4.764;2023-02-05T03:25:51;7.55;;;3.95;;
64387;SDS011;50709;52.648;4.764;2023-02-05T03:28:17;8.48;;;3.50;;
64387;SDS011;50709;52.648;4.764;2023-02-05T03:33:31;6.60;;;3.40;;
64387;SDS011;50709;52.648;4.764;2023-02-05T03:41:46;7.90;;;3.42;;
64387;SDS011;50709;52.648;4.764;2023-02-05T03:55:42;6.10;;;3.30;;
64387;SDS011;50709;52.648;4.764;2023-02-05T03:58:32;4.47;;;2.40;;
64387;SDS011;50709;52.648;4.764;2023-02-05T04:01:02;6.53;;;2.63;;
64387;SDS011;50709;52.648;4.764;2023-02-05T04:03:28;4.15;;;2.40;;
64387;SDS011;50709;52.648;4.764;2023-02-05T04:05:54;6.15;;;2.58;;
64387;SDS011;50709;52.648;4.764;2023-02-05T04:08:20;4.68;;;2.35;;
64387;SDS011;50709;52.648;4.764;2023-02-05T04:10:45;8.23;;;2.55;;
64387;SDS011;50709;52.648;4.764;2023-02-05T04:13:11;5.85;;;2.38;;
64387;SDS011;50709;52.648;4.764;2023-02-05T04:15:36;5.88;;;1.92;;
64387;SDS011;50709;52.648;4.764;2023-02-05T04:18:02;4.35;;;1.83;;
64387;SDS011;50709;52.648;4.764;2023-02-05T04:20:27;3.95;;;1.58;;
64387;SDS011;50709;52.648;4.764;2023-02-05T04:22:53;5.22;;;2.25;;
64387;SDS011;50709;52.648;4.764;2023-02-05T04:25:18;1.60;;;1.15;;
64387;SDS011;50709;52.648;4.764;2023-02-05T04:27:44;6.43;;;1.95;;
64387;SDS011;50709;52.648;4.764;2023-02-05T04:30:10;4.18;;;2.03;;
64387;SDS011;50709;52.648;4.764;2023-02-05T04:32:36;4.40;;;2.20;;
64387;SDS011;50709;52.648;4.764;2023-02-05T04:35:02;4.40;;;1.65;;
64387;SDS011;50709;52.648;4.764;2023-02-05T04:37:27;6.60;;;2.35;;
64387;SDS011;50709;52.648;4.764;2023-02-05T04:39:53;8.52;;;2.00;;
64387;SDS011;50709;52.648;4.764;2023-02-05T04:42:18;6.57;;;1.70;;
64387;SDS011;50709;52.648;4.764;2023-02-05T04:44:43;5.07;;;1.55;;
64387;SDS011;50709;52.648;4.764;2023-02-05T04:47:09;8.05;;;2.05;;
64387;SDS011;50709;52.648;4.764;2023-02-05T04:49:34;5.03;;;2.05;;
64387;SDS011;50709;52.648;4.764;2023-02-05T04:52:00;6.70;;;1.67;;
64387;SDS011;50709;52.648;4.764;2023-02-05T04:54:26;2.50;;;1.45;;
64387;SDS011;50709;52.648;4.764;2023-02-05T04:56:52;1.55;;;1.05;;
64387;SDS011;50709;52.648;4.764;2023-02-05T04:59:18;5.90;;;1.75;;
64387;SDS011;50709;52.648;4.764;2023-02-05T05:01:43;1.88;;;1.00;;
64387;SDS011;50709;52.648;4.764;2023-02-05T05:04:09;8.07;;;2.00;;
64387;SDS011;50709;52.648;4.764;2023-02-05T05:06:34;3.80;;;1.92;;
64387;SDS011;50709;52.648;4.764;2023-02-05T05:09:00;5.82;;;1.60;;
64387;SDS011;50709;52.648;4.764;2023-02-05T05:11:25;3.25;;;1.75;;
64387;SDS011;50709;52.648;4.764;2023-02-05T05:13:51;6.93;;;1.67;;
64387;SDS011;50709;52.648;4.764;2023-02-05T05:16:16;11.93;;;2.22;;
64387;SDS011;50709;52.648;4.764;2023-02-05T05:18:42;4.80;;;1.50;;
64387;SDS011;50709;52.648;4.764;2023-02-05T05:21:07;6.05;;;1.58;;
64387;SDS011;50709;52.648;4.764;2023-02-05T05:23:34;6.32;;;1.60;;
64387;SDS011;50709;52.648;4.764;2023-02-05T05:26:03;5.25;;;1.40;;
64387;SDS011;50709;52.648;4.764;2023-02-05T05:28:30;2.55;;;1.35;;
64387;SDS011;50709;52.648;4.764;2023-02-05T05:30:58;12.27;;;2.00;;
64387;SDS011;50709;52.648;4.764;2023-02-05T05:33:25;5.15;;;1.75;;
64387;SDS011;50709;52.648;4.764;2023-02-05T05:35:51;10.25;;;2.33;;
64387;SDS011;50709;52.648;4.764;2023-02-05T05:38:16;8.00;;;2.60;;
64387;SDS011;50709;52.648;4.764;2023-02-05T05:40:42;4.60;;;1.70;;
64387;SDS011;50709;52.648;4.764;2023-02-05T05:43:26;6.80;;;1.60;;
64387;SDS011;50709;52.648;4.764;2023-02-05T05:46:10;4.75;;;1.80;;
64387;SDS011;50709;52.648;4.764;2023-02-05T05:48:35;11.32;;;2.30;;
64387;SDS011;50709;52.648;4.764;2023-02-05T05:51:00;6.35;;;1.92;;
64387;SDS011;50709;52.648;4.764;2023-02-05T05:53:26;4.40;;;1.90;;
64387;SDS011;50709;52.648;4.764;2023-02-05T05:55:52;5.70;;;1.83;;
64387;SDS011;50709;52.648;4.764;2023-02-05T05:58:17;7.28;;;1.67;;
64387;SDS011;50709;52.648;4.764;2023-02-05T06:00:43;10.23;;;2.17;;
64387;SDS011;50709;52.648;4.764;2023-02-05T06:03:11;4.45;;;1.33;;
64387;SDS011;50709;52.648;4.764;2023-02-05T06:05:37;5.85;;;1.63;;
64387;SDS011;50709;52.648;4.764;2023-02-05T06:08:02;7.82;;;1.90;;
64387;SDS011;50709;52.648;4.764;2023-02-05T06:10:28;4.65;;;1.70;;
64387;SDS011;50709;52.648;4.764;2023-02-05T06:12:54;7.53;;;2.30;;
64387;SDS011;50709;52.648;4.764;2023-02-05T06:15:20;9.13;;;1.75;;
64387;SDS011;50709;52.648;4.764;2023-02-05T06:17:46;5.05;;;1.33;;
64387;SDS011;50709;52.648;4.764;2023-02-05T06:20:12;1.63;;;1.15;;
64387;SDS011;50709;52.648;4.764;2023-02-05T06:22:38;4.45;;;1.55;;
64387;SDS011;50709;52.648;4.764;2023-02-05T06:25:05;9.77;;;2.33;;
64387;SDS011;50709;52.648;4.764;2023-02-05T06:27:31;10.25;;;1.95;;
64387;SDS011;50709;52.648;4.764;2023-02-05T06:29:56;5.20;;;1.65;;
64387;SDS011;50709;52.648;4.764;2023-02-05T06:32:22;7.50;;;2.20;;
64387;SDS011;50709;52.648;4.764;2023-02-05T06:34:47;14.10;;;2.38;;
64387;SDS011;50709;52.648;4.764;2023-02-05T06:37:13;4.75;;;1.70;;
64387;SDS011;50709;52.648;4.764;2023-02-05T06:39:38;5.35;;;1.63;;
64387;SDS011;50709;52.648;4.764;2023-02-05T06:42:04;5.22;;;1.80;;
64387;SDS011;50709;52.648;4.764;2023-02-05T06:44:29;5.57;;;2.08;;
64387;SDS011;50709;52.648;4.764;2023-02-05T06:46:55;9.23;;;2.28;;
64387;SDS011;50709;52.648;4.764;2023-02-05T06:49:20;8.25;;;1.50;;
64387;SDS011;50709;52.648;4.764;2023-02-05T06:51:46;1.58;;;1.02;;
64387;SDS011;50709;52.648;4.764;2023-02-05T06:54:11;11.45;;;2.60;;
64387;SDS011;50709;52.648;4.764;2023-02-05T06:56:38;3.90;;;1.95;;
64387;SDS011;50709;52.648;4.764;2023-02-05T06:59:04;9.57;;;2.40;;
64387;SDS011;50709;52.648;4.764;2023-02-05T07:01:30;11.98;;;2.20;;
64387;SDS011;50709;52.648;4.764;2023-02-05T07:03:55;5.68;;;1.90;;
64387;SDS011;50709;52.648;4.764;2023-02-05T07:06:21;10.40;;;2.22;;
64387;SDS011;50709;52.648;4.764;2023-02-05T07:08:51;10.43;;;2.50;;
64387;SDS011;50709;52.648;4.764;2023-02-05T07:11:17;7.72;;;2.13;;
64387;SDS011;50709;52.648;4.764;2023-02-05T07:13:45;11.88;;;2.92;;
64387;SDS011;50709;52.648;4.764;2023-02-05T07:16:11;7.95;;;1.77;;
64387;SDS011;50709;52.648;4.764;2023-02-05T07:18:36;12.52;;;2.35;;
64387;SDS011;50709;52.648;4.764;2023-02-05T07:21:06;7.07;;;1.95;;
64387;SDS011;50709;52.648;4.764;2023-02-05T07:23:34;6.18;;;2.28;;
64387;SDS011;50709;52.648;4.764;2023-02-05T07:26:10;8.10;;;2.72;;
64387;SDS011;50709;52.648;4.764;2023-02-05T07:28:40;10.07;;;2.47;;
64387;SDS011;50709;52.648;4.764;2023-02-05T07:31:07;13.77;;;2.15;;
64387;SDS011;50709;52.648;4.764;2023-02-05T07:33:34;5.43;;;1.90;;
64387;SDS011;50709;52.648;4.764;2023-02-05T07:36:04;1.40;;;1.27;;
64387;SDS011;50709;52.648;4.764;2023-02-05T07:38:31;9.30;;;2.35;;
64387;SDS011;50709;52.648;4.764;2023-02-05T07:40:57;11.05;;;2.05;;
64387;SDS011;50709;52.648;4.764;2023-02-05T07:43:22;4.60;;;1.70;;
64387;SDS011;50709;52.648;4.764;2023-02-05T07:45:57;13.02;;;2.53;;
64387;SDS011;50709;52.648;4.764;2023-02-05T07:48:26;15.48;;;1.65;;
64387;SDS011;50709;52.648;4.764;2023-02-05T07:51:14;13.32;;;3.30;;
64387;SDS011;50709;52.648;4.764;2023-02-05T07:53:46;10.05;;;2.03;;
64387;SDS011;50709;52.648;4.764;2023-02-05T07:56:11;4.90;;;1.63;;
64387;SDS011;50709;52.648;4.764;2023-02-05T07:58:37;8.98;;;2.22;;
64387;SDS011;50709;52.648;4.764;2023-02-05T08:01:03;7.75;;;2.53;;
64387;SDS011;50709;52.648;4.764;2023-02-05T08:03:29;11.55;;;2.25;;
64387;SDS011;50709;52.648;4.764;2023-02-05T08:05:55;7.82;;;2.17;;
64387;SDS011;50709;52.648;4.764;2023-02-05T08:08:21;11.93;;;2.90;;
64387;SDS011;50709;52.648;4.764;2023-02-05T08:10:47;4.82;;;2.17;;
64387;SDS011;50709;52.648;4.764;2023-02-05T08:13:19;9.25;;;2.65;;
64387;SDS011;50709;52.648;4.764;2023-02-05T08:15:45;16.08;;;2.80;;
64387;SDS011;50709;52.648;4.764;2023-02-05T08:18:10;11.85;;;2.72;;
64387;SDS011;50709;52.648;4.764;2023-02-05T08:20:35;9.40;;;2.35;;
64387;SDS011;50709;52.648;4.764;2023-02-05T08:23:01;6.65;;;2.40;;
64387;SDS011;50709;52.648;4.764;2023-02-05T08:25:29;9.23;;;2.35;;
64387;SDS011;50709;52.648;4.764;2023-02-05T08:28:14;6.32;;;1.77;;
64387;SDS011;50709;52.648;4.764;2023-02-05T08:30:40;6.85;;;2.08;;
64387;SDS011;50709;52.648;4.764;2023-02-05T08:33:05;14.43;;;3.20;;
64387;SDS011;50709;52.648;4.764;2023-02-05T08:35:31;7.13;;;2.55;;
64387;SDS011;50709;52.648;4.764;2023-02-05T08:37:56;12.80;;;2.30;;
64387;SDS011;50709;52.648;4.764;2023-02-05T08:40:22;14.32;;;3.25;;
64387;SDS011;50709;52.648;4.764;2023-02-05T08:42:47;3.78;;;1.63;;
64387;SDS011;50709;52.648;4.764;2023-02-05T08:45:16;11.32;;;2.95;;
64387;SDS011;50709;52.648;4.764;2023-02-05T08:47:42;5.45;;;1.85;;
64387;SDS011;50709;52.648;4.764;2023-02-05T08:50:08;10.68;;;2.72;;
64387;SDS011;50709;52.648;4.764;2023-02-05T08:52:34;14.05;;;2.78;;
64387;SDS011;50709;52.648;4.764;2023-02-05T08:55:00;13.95;;;2.58;;
64387;SDS011;50709;52.648;4.764;2023-02-05T08:57:27;6.50;;;2.35;;
64387;SDS011;50709;52.648;4.764;2023-02-05T08:59:54;7.13;;;2.33;;
64387;SDS011;50709;52.648;4.764;2023-02-05T09:02:20;15.70;;;2.92;;
64387;SDS011;50709;52.648;4.764;2023-02-05T09:04:45;13.55;;;3.25;;
64387;SDS011;50709;52.648;4.764;2023-02-05T09:07:11;15.27;;;2.97;;
64387;SDS011;50709;52.648;4.764;2023-02-05T09:09:36;22.50;;;4.43;;
64387;SDS011;50709;52.648;4.764;2023-02-05T09:12:02;7.25;;;1.90;;
64387;SDS011;50709;52.648;4.764;2023-02-05T09:14:28;5.55;;;1.67;;
64387;SDS011;50709;52.648;4.764;2023-02-05T09:17:00;12.88;;;2.92;;
64387;SDS011;50709;52.648;4.764;2023-02-05T09:19:29;17.65;;;4.85;;
64387;SDS011;50709;52.648;4.764;2023-02-05T09:21:57;13.40;;;3.50;;
64387;SDS011;50709;52.648;4.764;2023-02-05T09:24:22;17.35;;;3.60;;
64387;SDS011;50709;52.648;4.764;2023-02-05T09:26:48;17.92;;;3.15;;
64387;SDS011;50709;52.648;4.764;2023-02-05T09:29:13;13.18;;;3.40;;
64387;SDS011;50709;52.648;4.764;2023-02-05T09:31:39;15.43;;;3.08;;
64387;SDS011;50709;52.648;4.764;2023-02-05T09:34:05;11.68;;;2.67;;
64387;SDS011;50709;52.648;4.764;2023-02-05T09:36:30;7.70;;;2.50;;
64387;SDS011;50709;52.648;4.764;2023-02-05T09:38:56;12.20;;;2.70;;
64387;SDS011;50709;52.648;4.764;2023-02-05T09:41:25;7.78;;;2.13;;
64387;SDS011;50709;52.648;4.764;2023-02-05T09:43:56;12.88;;;2.53;;
64387;SDS011;50709;52.648;4.764;2023-02-05T09:46:46;16.55;;;3.00;;
64387;SDS011;50709;52.648;4.764;2023-02-05T09:49:17;4.30;;;1.98;;
64387;SDS011;50709;52.648;4.764;2023-02-05T09:51:50;14.32;;;3.50;;
64387;SDS011;50709;52.648;4.764;2023-02-05T09:54:27;13.10;;;3.28;;
64387;SDS011;50709;52.648;4.764;2023-02-05T09:56:58;14.20;;;3.05;;
64387;SDS011;50709;52.648;4.764;2023-02-05T09:59:27;13.70;;;3.20;;
64387;SDS011;50709;52.648;4.764;2023-02-05T10:01:57;9.68;;;2.45;;
64387;SDS011;50709;52.648;4.764;2023-02-05T10:04:25;11.95;;;2.65;;
64387;SDS011;50709;52.648;4.764;2023-02-05T10:07:13;14.10;;;3.45;;
64387;SDS011;50709;52.648;4.764;2023-02-05T10:12:25;17.05;;;4.30;;
64387;SDS011;50709;52.648;4.764;2023-02-05T10:26:19;12.07;;;3.30;;
64387;SDS011;50709;52.648;4.764;2023-02-05T10:31:26;13.57;;;3.70;;
64387;SDS011;50709;52.648;4.764;2023-02-05T10:34:27;11.85;;;3.72;;
64387;SDS011;50709;52.648;4.764;2023-02-05T10:36:51;13.65;;;3.20;;
64387;SDS011;50709;52.648;4.764;2023-02-05T10:39:18;12.63;;;2.75;;
64387;SDS011;50709;52.648;4.764;2023-02-05T10:41:51;17.02;;;3.58;;
64387;SDS011;50709;52.648;4.764;2023-02-05T10:47:05;15.10;;;3.58;;
64387;SDS011;50709;52.648;4.764;2023-02-05T10:50:05;13.63;;;3.67;;
64387;SDS011;50709;52.648;4.764;2023-02-05T10:52:38;18.75;;;3.85;;
64387;SDS011;50709;52.648;4.764;2023-02-05T10:55:03;13.43;;;3.60;;
64387;SDS011;50709;52.648;4.764;2023-02-05T10:57:30;18.40;;;3.88;;
64387;SDS011;50709;52.648;4.764;2023-02-05T11:00:04;15.60;;;3.45;;
64387;SDS011;50709;52.648;4.764;2023-02-05T11:02:38;13.05;;;4.07;;
64387;SDS011;50709;52.648;4.764;2023-02-05T11:07:59;14.55;;;2.83;;
64387;SDS011;50709;52.648;4.764;2023-02-05T11:10:26;14.05;;;2.33;;
64387;SDS011;50709;52.648;4.764;2023-02-05T11:12:54;14.07;;;3.10;;
64387;SDS011;50709;52.648;4.764;2023-02-05T11:15:28;12.15;;;3.05;;
64387;SDS011;50709;52.648;4.764;2023-02-05T11:17:56;12.98;;;3.30;;
64387;SDS011;50709;52.648;4.764;2023-02-05T11:20:26;13.93;;;3.50;;
64387;SDS011;50709;52.648;4.764;2023-02-05T11:23:07;9.63;;;3.27;;
64387;SDS011;50709;52.648;4.764;2023-02-05T11:25:33;10.95;;;3.35;;
64387;SDS011;50709;52.648;4.764;2023-02-05T11:27:59;10.25;;;2.65;;
64387;SDS011;50709;52.648;4.764;2023-02-05T11:30:32;6.50;;;2.05;;
64387;SDS011;50709;52.648;4.764;2023-02-05T11:36:01;16.48;;;2.85;;
64387;SDS011;50709;52.648;4.764;2023-02-05T11:41:02;14.73;;;2.60;;
64387;SDS011;50709;52.648;4.764;2023-02-05T11:45:59;5.72;;;2.25;;
64387;SDS011;50709;52.648;4.764;2023-02-05T11:48:49;9.50;;;2.80;;
64387;SDS011;50709;52.648;4.764;2023-02-05T11:51:42;15.33;;;2.83;;
64387;SDS011;50709;52.648;4.764;2023-02-05T11:57:00;6.82;;;2.42;;
64387;SDS011;50709;52.648;4.764;2023-02-05T11:59:32;10.10;;;2.67;;
64387;SDS011;50709;52.648;4.764;2023-02-05T12:02:13;7.10;;;2.75;;
64387;SDS011;50709;52.648;4.764;2023-02-05T12:04:45;9.27;;;2.95;;
64387;SDS011;50709;52.648;4.764;2023-02-05T12:07:13;11.48;;;3.25;;
64387;SDS011;50709;52.648;4.764;2023-02-05T12:09:43;12.35;;;2.60;;
64387;SDS011;50709;52.648;4.764;2023-02-05T12:14:57;9.70;;;2.60;;
64387;SDS011;50709;52.648;4.764;2023-02-05T12:26:04;14.43;;;3.20;;
64387;SDS011;50709;52.648;4.764;2023-02-05T12:32:05;5.68;;;1.85;;
64387;SDS011;50709;52.648;4.764;2023-02-05T12:37:34;14.80;;;2.85;;
64387;SDS011;50709;52.648;4.764;2023-02-05T12:43:04;7.57;;;2.70;;
64387;SDS011;50709;52.648;4.764;2023-02-05T12:45:43;14.23;;;3.47;;
64387;SDS011;50709;52.648;4.764;2023-02-05T12:50:58;13.25;;;3.17;;
64387;SDS011;50709;52.648;4.764;2023-02-05T12:56:55;9.48;;;2.08;;
64387;SDS011;50709;52.648;4.764;2023-02-05T13:01:54;12.68;;;3.33;;
64387;SDS011;50709;52.648;4.764;2023-02-05T13:04:33;7.43;;;2.30;;
64387;SDS011;50709;52.648;4.764;2023-02-05T13:07:09;10.50;;;2.25;;
64387;SDS011;50709;52.648;4.764;2023-02-05T13:10:03;16.77;;;3.35;;
64387;SDS011;50709;52.648;4.764;2023-02-05T13:12:38;11.63;;;3.17;;
64387;SDS011;50709;52.648;4.764;2023-02-05T13:18:09;11.70;;;3.15;;
64387;SDS011;50709;52.648;4.764;2023-02-05T13:20:42;12.18;;;3.08;;
64387;SDS011;50709;52.648;4.764;2023-02-05T13:23:28;10.00;;;2.83;;
64387;SDS011;50709;52.648;4.764;2023-02-05T13:26:16;9.45;;;3.20;;
64387;SDS011;50709;52.648;4.764;2023-02-05T13:29:17;7.57;;;2.78;;
64387;SDS011;50709;52.648;4.764;2023-02-05T13:31:47;10.82;;;2.80;;
64387;SDS011;50709;52.648;4.764;2023-02-05T13:34:16;10.52;;;2.97;;
64387;SDS011;50709;52.648;4.764;2023-02-05T13:36:57;11.15;;;2.53;;
64387;SDS011;50709;52.648;4.764;2023-02-05T13:56:22;9.32;;;3.10;;
64387;SDS011;50709;52.648;4.764;2023-02-05T13:59:42;13.48;;;3.05;;
64387;SDS011;50709;52.648;4.764;2023-02-05T14:01:59;9.70;;;2.85;;
64387;SDS011;50709;52.648;4.764;2023-02-05T14:04:27;8.38;;;2.72;;
64387;SDS011;50709;52.648;4.764;2023-02-05T14:07:03;14.15;;;3.47;;
64387;SDS011;50709;52.648;4.764;2023-02-05T14:12:02;20.13;;;3.83;;
64387;SDS011;50709;52.648;4.764;2023-02-05T14:14:31;9.40;;;2.47;;
64387;SDS011;50709;52.648;4.764;2023-02-05T14:17:02;10.38;;;2.80;;
64387;SDS011;50709;52.648;4.764;2023-02-05T14:22:39;19.17;;;3.72;;
64387;SDS011;50709;52.648;4.764;2023-02-05T14:27:59;20.25;;;3.58;;
64387;SDS011;50709;52.648;4.764;2023-02-05T14:41:13;14.43;;;3.00;;
64387;SDS011;50709;52.648;4.764;2023-02-05T14:43:44;15.55;;;3.20;;
64387;SDS011;50709;52.648;4.764;2023-02-05T14:46:37;8.57;;;2.47;;
64387;SDS011;50709;52.648;4.764;2023-02-05T14:49:25;12.00;;;2.90;;
64387;SDS011;50709;52.648;4.764;2023-02-05T14:51:53;12.20;;;2.83;;
64387;SDS011;50709;52.648;4.764;2023-02-05T14:54:24;16.10;;;3.78;;
64387;SDS011;50709;52.648;4.764;2023-02-05T14:56:54;15.07;;;3.40;;
64387;SDS011;50709;52.648;4.764;2023-02-05T14:59:57;14.40;;;3.08;;
64387;SDS011;50709;52.648;4.764;2023-02-05T15:13:29;12.80;;;3.13;;
64387;SDS011;50709;52.648;4.764;2023-02-05T15:18:39;10.13;;;2.90;;
64387;SDS011;50709;52.648;4.764;2023-02-05T15:21:10;11.52;;;3.10;;
64387;SDS011;50709;52.648;4.764;2023-02-05T15:23:44;13.20;;;3.90;;
64387;SDS011;50709;52.648;4.764;2023-02-05T15:26:38;8.80;;;2.75;;
64387;SDS011;50709;52.648;4.764;2023-02-05T15:29:12;19.75;;;3.88;;
64387;SDS011;50709;52.648;4.764;2023-02-05T15:31:43;8.15;;;2.67;;
64387;SDS011;50709;52.648;4.764;2023-02-05T15:39:43;11.77;;;3.53;;
64387;SDS011;50709;52.648;4.764;2023-02-05T15:45:22;9.70;;;2.72;;
64387;SDS011;50709;52.648;4.764;2023-02-05T15:48:02;12.70;;;3.13;;
64387;SDS011;50709;52.648;4.764;2023-02-05T15:50:36;15.02;;;3.35;;
64387;SDS011;50709;52.648;4.764;2023-02-05T15:53:09;10.70;;;2.67;;
64387;SDS011;50709;52.648;4.764;2023-02-05T15:55:50;15.38;;;3.17;;
64387;SDS011;50709;52.648;4.764;2023-02-05T15:58:16;9.07;;;2.58;;
64387;SDS011;50709;52.648;4.764;2023-02-05T16:00:47;15.73;;;2.95;;
64387;SDS011;50709;52.648;4.764;2023-02-05T16:03:35;10.32;;;3.60;;
64387;SDS011;50709;52.648;4.764;2023-02-05T16:06:00;13.88;;;3.25;;
64387;SDS011;50709;52.648;4.764;2023-02-05T16:08:26;15.38;;;3.70;;
64387;SDS011;50709;52.648;4.764;2023-02-05T16:10:58;14.07;;;3.28;;
64387;SDS011;50709;52.648;4.764;2023-02-05T16:13:27;15.25;;;2.80;;
64387;SDS011;50709;52.648;4.764;2023-02-05T16:18:29;16.08;;;3.65;;
64387;SDS011;50709;52.648;4.764;2023-02-05T16:20:59;16.42;;;2.92;;
64387;SDS011;50709;52.648;4.764;2023-02-05T16:23:35;16.85;;;3.40;;
64387;SDS011;50709;52.648;4.764;2023-02-05T16:26:09;14.63;;;3.13;;
64387;SDS011;50709;52.648;4.764;2023-02-05T16:28:51;10.88;;;3.30;;
64387;SDS011;50709;52.648;4.764;2023-02-05T16:31:23;10.50;;;2.88;;
64387;SDS011;50709;52.648;4.764;2023-02-05T16:36:38;13.27;;;3.33;;
64387;SDS011;50709;52.648;4.764;2023-02-05T16:39:13;12.05;;;3.10;;
64387;SDS011;50709;52.648;4.764;2023-02-05T16:41:45;18.73;;;3.72;;
64387;SDS011;50709;52.648;4.764;2023-02-05T16:44:26;20.17;;;4.00;;
64387;SDS011;50709;52.648;4.764;2023-02-05T16:49:44;13.95;;;3.15;;
64387;SDS011;50709;52.648;4.764;2023-02-05T16:52:23;14.32;;;3.53;;
64387;SDS011;50709;52.648;4.764;2023-02-05T16:54:50;14.35;;;3.72;;
64387;SDS011;50709;52.648;4.764;2023-02-05T16:57:21;14.18;;;3.33;;
64387;SDS011;50709;52.648;4.764;2023-02-05T16:59:54;15.57;;;3.47;;
64387;SDS011;50709;52.648;4.764;2023-02-05T17:04:52;14.20;;;3.53;;
64387;SDS011;50709;52.648;4.764;2023-02-05T17:07:19;11.73;;;3.58;;
64387;SDS011;50709;52.648;4.764;2023-02-05T17:09:46;10.60;;;3.20;;
64387;SDS011;50709;52.648;4.764;2023-02-05T17:14:58;6.72;;;3.08;;
64387;SDS011;50709;52.648;4.764;2023-02-05T17:17:24;15.27;;;3.53;;
64387;SDS011;50709;52.648;4.764;2023-02-05T17:25:25;11.38;;;3.92;;
64387;SDS011;50709;52.648;4.764;2023-02-05T17:27:51;14.75;;;3.10;;
64387;SDS011;50709;52.648;4.764;2023-02-05T17:30:17;15.07;;;3.85;;
64387;SDS011;50709;52.648;4.764;2023-02-05T17:32:43;15.30;;;3.10;;
64387;SDS011;50709;52.648;4.764;2023-02-05T17:35:13;12.75;;;3.35;;
64387;SDS011;50709;52.648;4.764;2023-02-05T17:37:42;13.57;;;3.20;;
64387;SDS011;50709;52.648;4.764;2023-02-05T17:40:08;14.00;;;3.22;;
64387;SDS011;50709;52.648;4.764;2023-02-05T17:42:36;18.55;;;4.22;;
64387;SDS011;50709;52.648;4.764;2023-02-05T17:45:02;11.43;;;3.83;;
64387;SDS011;50709;52.648;4.764;2023-02-05T17:47:37;17.10;;;3.50;;
64387;SDS011;50709;52.648;4.764;2023-02-05T17:50:03;19.30;;;4.97;;
64387;SDS011;50709;52.648;4.764;2023-02-05T17:52:29;22.75;;;5.05;;